sensor_id;sensor_type;location;lat;lon;timestamp;pressure;altitude;pressure_sealevel;temperature;humidity
74403;BME280;62837;51.082;13.744;2023-11-21T00:00:40;99705.51;;;8.77;85.71
74403;BME280;62837;51.082;13.744;2023-11-21T00:03:11;99709.52;;;8.94;86.21
74403;BME280;62837;51.082;13.744;2023-11-21T00:05:44;99709.28;;;9.03;83.76
74403;BME280;62837;51.082;13.744;2023-11-21T00:08:15;99706.46;;;9.08;83.76
74403;BME280;62837;51.082;13.744;2023-11-21T00:10:46;99706.68;;;9.08;83.11
74403;BME280;62837;51.082;13.744;2023-11-21T00:13:18;99704.84;;;9.11;83.82
74403;BME280;62837;51.082;13.744;2023-11-21T00:15:49;99710.52;;;9.20;84.43
74403;BME280;62837;51.082;13.744;2023-11-21T00:18:20;99707.76;;;9.24;83.05
74403;BME280;62837;51.082;13.744;2023-11-21T00:20:51;99712.66;;;9.28;83.77
74403;BME280;62837;51.082;13.744;2023-11-21T00:23:22;99707.92;;;9.37;84.24
74403;BME280;62837;51.082;13.744;2023-11-21T00:25:52;99711.25;;;9.46;84.08
74403;BME280;62837;51.082;13.744;2023-11-21T00:28:24;99706.98;;;9.52;84.00
74403;BME280;62837;51.082;13.744;2023-11-21T00:30:55;99708.63;;;9.62;83.22
74403;BME280;62837;51.082;13.744;2023-11-21T00:33:26;99708.58;;;9.63;82.77
74403;BME280;62837;51.082;13.744;2023-11-21T00:35:57;99708.27;;;9.68;83.68
74403;BME280;62837;51.082;13.744;2023-11-21T00:38:28;99710.20;;;9.76;83.39
74403;BME280;62837;51.082;13.744;2023-11-21T00:41:00;99708.37;;;9.84;83.50
74403;BME280;62837;51.082;13.744;2023-11-21T00:43:33;99713.88;;;9.92;83.35
74403;BME280;62837;51.082;13.744;2023-11-21T00:46:07;99710.43;;;9.99;82.98
74403;BME280;62837;51.082;13.744;2023-11-21T00:48:38;99708.84;;;10.05;82.99
74403;BME280;62837;51.082;13.744;2023-11-21T00:51:09;99713.04;;;10.10;82.64
74403;BME280;62837;51.082;13.744;2023-11-21T00:53:40;99717.11;;;10.14;82.26
74403;BME280;62837;51.082;13.744;2023-11-21T00:56:11;99718.23;;;10.18;82.30
74403;BME280;62837;51.082;13.744;2023-11-21T00:58:42;99719.94;;;10.22;82.07
74403;BME280;62837;51.082;13.744;2023-11-21T01:01:20;99724.78;;;10.24;81.81
74403;BME280;62837;51.082;13.744;2023-11-21T01:03:51;99726.81;;;10.27;81.43
74403;BME280;62837;51.082;13.744;2023-11-21T01:06:23;99729.58;;;10.28;81.30
74403;BME280;62837;51.082;13.744;2023-11-21T01:08:54;99731.92;;;10.28;81.02
74403;BME280;62837;51.082;13.744;2023-11-21T01:11:25;99728.46;;;10.23;79.95
74403;BME280;62837;51.082;13.744;2023-11-21T01:13:56;99735.43;;;10.17;80.22
74403;BME280;62837;51.082;13.744;2023-11-21T01:16:27;99736.54;;;10.09;79.55
74403;BME280;62837;51.082;13.744;2023-11-21T01:18:58;99735.42;;;10.01;80.52
74403;BME280;62837;51.082;13.744;2023-11-21T01:21:29;99737.17;;;9.99;80.46
74403;BME280;62837;51.082;13.744;2023-11-21T01:24:00;99736.84;;;9.97;80.09
74403;BME280;62837;51.082;13.744;2023-11-21T01:26:32;99732.70;;;9.87;80.13
74403;BME280;62837;51.082;13.744;2023-11-21T01:29:04;99740.35;;;9.89;80.69
74403;BME280;62837;51.082;13.744;2023-11-21T01:31:35;99739.85;;;9.91;80.94
74403;BME280;62837;51.082;13.744;2023-11-21T01:34:06;99737.16;;;9.94;80.84
74403;BME280;62837;51.082;13.744;2023-11-21T01:36:37;99740.21;;;10.00;81.25
74403;BME280;62837;51.082;13.744;2023-11-21T01:39:07;99742.45;;;10.03;81.11
74403;BME280;62837;51.082;13.744;2023-11-21T01:41:42;99741.26;;;10.07;80.65
74403;BME280;62837;51.082;13.744;2023-11-21T01:44:14;99738.77;;;10.05;80.23
74403;BME280;62837;51.082;13.744;2023-11-21T01:46:46;99739.70;;;9.95;79.24
74403;BME280;62837;51.082;13.744;2023-11-21T01:49:18;99740.04;;;9.80;79.21
74403;BME280;62837;51.082;13.744;2023-11-21T01:51:51;99740.71;;;9.68;79.53
74403;BME280;62837;51.082;13.744;2023-11-21T01:54:22;99739.33;;;9.64;80.81
74403;BME280;62837;51.082;13.744;2023-11-21T01:56:53;99741.38;;;9.70;81.35
74403;BME280;62837;51.082;13.744;2023-11-21T01:59:25;99741.35;;;9.76;81.32
74403;BME280;62837;51.082;13.744;2023-11-21T02:01:57;99741.20;;;9.84;81.09
74403;BME280;62837;51.082;13.744;2023-11-21T02:04:28;99738.64;;;9.91;81.12
74403;BME280;62837;51.082;13.744;2023-11-21T02:06:59;99734.36;;;9.90;80.10
74403;BME280;62837;51.082;13.744;2023-11-21T02:09:30;99735.61;;;9.92;81.15
74403;BME280;62837;51.082;13.744;2023-11-21T02:12:01;99737.56;;;9.96;80.45
74403;BME280;62837;51.082;13.744;2023-11-21T02:14:32;99740.46;;;9.94;80.31
74403;BME280;62837;51.082;13.744;2023-11-21T02:17:04;99744.07;;;9.91;80.19
74403;BME280;62837;51.082;13.744;2023-11-21T02:19:34;99748.57;;;9.84;80.44
74403;BME280;62837;51.082;13.744;2023-11-21T02:22:06;99751.30;;;9.82;80.79
74403;BME280;62837;51.082;13.744;2023-11-21T02:24:37;99755.65;;;9.85;81.11
74403;BME280;62837;51.082;13.744;2023-11-21T02:27:08;99757.81;;;9.93;81.21
74403;BME280;62837;51.082;13.744;2023-11-21T02:29:39;99755.41;;;10.00;81.07
74403;BME280;62837;51.082;13.744;2023-11-21T02:32:10;99752.73;;;10.06;81.12
74403;BME280;62837;51.082;13.744;2023-11-21T02:34:41;99751.66;;;10.12;80.77
74403;BME280;62837;51.082;13.744;2023-11-21T02:37:13;99749.55;;;10.17;80.44
74403;BME280;62837;51.082;13.744;2023-11-21T02:39:44;99747.69;;;10.19;80.05
74403;BME280;62837;51.082;13.744;2023-11-21T02:42:15;99747.05;;;10.21;80.04
74403;BME280;62837;51.082;13.744;2023-11-21T02:44:46;99755.55;;;10.22;80.21
74403;BME280;62837;51.082;13.744;2023-11-21T02:47:17;99758.02;;;10.26;80.47
74403;BME280;62837;51.082;13.744;2023-11-21T02:49:48;99759.84;;;10.27;79.96
74403;BME280;62837;51.082;13.744;2023-11-21T02:52:19;99754.79;;;10.27;79.57
74403;BME280;62837;51.082;13.744;2023-11-21T02:54:50;99755.23;;;10.24;79.59
74403;BME280;62837;51.082;13.744;2023-11-21T02:57:21;99753.90;;;10.21;80.01
74403;BME280;62837;51.082;13.744;2023-11-21T02:59:52;99759.58;;;10.26;79.38
74403;BME280;62837;51.082;13.744;2023-11-21T03:02:23;99759.95;;;10.21;78.97
74403;BME280;62837;51.082;13.744;2023-11-21T03:04:54;99766.71;;;10.11;78.00
74403;BME280;62837;51.082;13.744;2023-11-21T03:07:25;99770.90;;;9.95;77.92
74403;BME280;62837;51.082;13.744;2023-11-21T03:09:56;99771.65;;;9.76;77.90
74403;BME280;62837;51.082;13.744;2023-11-21T03:12:27;99773.95;;;9.60;78.30
74403;BME280;62837;51.082;13.744;2023-11-21T03:14:58;99770.98;;;9.49;78.86
74403;BME280;62837;51.082;13.744;2023-11-21T03:17:29;99768.00;;;9.46;79.43
74403;BME280;62837;51.082;13.744;2023-11-21T03:20:00;99761.20;;;9.47;80.32
74403;BME280;62837;51.082;13.744;2023-11-21T03:22:31;99774.16;;;9.59;80.44
74403;BME280;62837;51.082;13.744;2023-11-21T03:25:03;99777.48;;;9.65;80.03
74403;BME280;62837;51.082;13.744;2023-11-21T03:27:35;99776.92;;;9.62;79.02
74403;BME280;62837;51.082;13.744;2023-11-21T03:30:10;99776.55;;;9.53;78.67
74403;BME280;62837;51.082;13.744;2023-11-21T03:32:41;99777.48;;;9.42;78.87
74403;BME280;62837;51.082;13.744;2023-11-21T03:35:12;99775.60;;;9.39;79.52
74403;BME280;62837;51.082;13.744;2023-11-21T03:37:43;99777.52;;;9.39;80.14
74403;BME280;62837;51.082;13.744;2023-11-21T03:40:15;99777.11;;;9.46;79.92
74403;BME280;62837;51.082;13.744;2023-11-21T03:42:45;99777.00;;;9.45;78.96
74403;BME280;62837;51.082;13.744;2023-11-21T03:45:16;99781.98;;;9.42;79.77
74403;BME280;62837;51.082;13.744;2023-11-21T03:47:48;99780.55;;;9.43;79.43
74403;BME280;62837;51.082;13.744;2023-11-21T03:50:19;99781.55;;;9.45;79.69
74403;BME280;62837;51.082;13.744;2023-11-21T03:52:50;99784.42;;;9.48;79.64
74403;BME280;62837;51.082;13.744;2023-11-21T03:55:21;99785.05;;;9.50;79.46
74403;BME280;62837;51.082;13.744;2023-11-21T03:57:52;99787.39;;;9.49;78.94
74403;BME280;62837;51.082;13.744;2023-11-21T04:00:24;99787.98;;;9.48;79.52
74403;BME280;62837;51.082;13.744;2023-11-21T04:02:57;99786.89;;;9.49;78.89
74403;BME280;62837;51.082;13.744;2023-11-21T04:05:28;99787.58;;;9.42;78.47
74403;BME280;62837;51.082;13.744;2023-11-21T04:07:59;99788.19;;;9.32;78.60
74403;BME280;62837;51.082;13.744;2023-11-21T04:10:30;99785.46;;;9.29;79.44
74403;BME280;62837;51.082;13.744;2023-11-21T04:13:01;99790.86;;;9.32;79.43
74403;BME280;62837;51.082;13.744;2023-11-21T04:15:32;99791.27;;;9.36;79.75
74403;BME280;62837;51.082;13.744;2023-11-21T04:18:02;99791.63;;;9.39;79.46
74403;BME280;62837;51.082;13.744;2023-11-21T04:20:33;99788.35;;;9.43;79.78
74403;BME280;62837;51.082;13.744;2023-11-21T04:23:04;99790.58;;;9.49;79.77
74403;BME280;62837;51.082;13.744;2023-11-21T04:25:35;99788.30;;;9.55;80.02
74403;BME280;62837;51.082;13.744;2023-11-21T04:28:06;99788.34;;;9.62;80.45
74403;BME280;62837;51.082;13.744;2023-11-21T04:30:37;99793.52;;;9.70;80.19
74403;BME280;62837;51.082;13.744;2023-11-21T04:33:10;99791.69;;;9.72;79.27
74403;BME280;62837;51.082;13.744;2023-11-21T04:35:41;99798.23;;;9.78;79.53
74403;BME280;62837;51.082;13.744;2023-11-21T04:38:12;99807.36;;;9.81;79.72
74403;BME280;62837;51.082;13.744;2023-11-21T04:40:43;99805.63;;;9.85;79.19
74403;BME280;62837;51.082;13.744;2023-11-21T04:43:13;99810.16;;;9.83;79.00
74403;BME280;62837;51.082;13.744;2023-11-21T04:45:45;99813.31;;;9.83;79.56
74403;BME280;62837;51.082;13.744;2023-11-21T04:48:16;99819.70;;;9.89;79.50
74403;BME280;62837;51.082;13.744;2023-11-21T04:50:47;99822.23;;;9.91;79.15
74403;BME280;62837;51.082;13.744;2023-11-21T04:53:18;99822.58;;;9.94;79.24
74403;BME280;62837;51.082;13.744;2023-11-21T04:55:49;99824.23;;;9.98;79.22
74403;BME280;62837;51.082;13.744;2023-11-21T04:58:20;99828.10;;;10.01;79.08
74403;BME280;62837;51.082;13.744;2023-11-21T05:00:51;99825.35;;;10.03;79.30
74403;BME280;62837;51.082;13.744;2023-11-21T05:03:22;99825.89;;;10.03;78.23
74403;BME280;62837;51.082;13.744;2023-11-21T05:05:54;99827.71;;;10.02;78.81
74403;BME280;62837;51.082;13.744;2023-11-21T05:08:25;99823.11;;;10.04;78.77
74403;BME280;62837;51.082;13.744;2023-11-21T05:10:56;99825.80;;;10.06;78.76
74403;BME280;62837;51.082;13.744;2023-11-21T05:13:27;99829.38;;;10.08;78.53
74403;BME280;62837;51.082;13.744;2023-11-21T05:15:58;99829.05;;;10.09;78.30
74403;BME280;62837;51.082;13.744;2023-11-21T05:18:29;99833.06;;;10.09;78.30
74403;BME280;62837;51.082;13.744;2023-11-21T05:21:00;99835.48;;;10.08;78.14
74403;BME280;62837;51.082;13.744;2023-11-21T05:23:31;99835.27;;;10.11;78.29
74403;BME280;62837;51.082;13.744;2023-11-21T05:26:03;99838.02;;;10.13;78.38
74403;BME280;62837;51.082;13.744;2023-11-21T05:28:34;99844.85;;;10.15;77.95
74403;BME280;62837;51.082;13.744;2023-11-21T05:31:06;99848.63;;;10.13;77.69
74403;BME280;62837;51.082;13.744;2023-11-21T05:33:46;99848.90;;;10.11;77.76
74403;BME280;62837;51.082;13.744;2023-11-21T05:36:17;99850.39;;;10.11;77.57
74403;BME280;62837;51.082;13.744;2023-11-21T05:38:48;99848.90;;;10.09;77.82
74403;BME280;62837;51.082;13.744;2023-11-21T05:41:19;99854.71;;;10.08;77.79
74403;BME280;62837;51.082;13.744;2023-11-21T05:43:50;99853.34;;;10.09;77.90
74403;BME280;62837;51.082;13.744;2023-11-21T05:46:23;99850.77;;;10.10;78.12
74403;BME280;62837;51.082;13.744;2023-11-21T05:48:54;99849.89;;;10.11;77.69
74403;BME280;62837;51.082;13.744;2023-11-21T05:51:26;99853.48;;;10.11;78.09
74403;BME280;62837;51.082;13.744;2023-11-21T05:53:57;99857.36;;;10.13;78.06
74403;BME280;62837;51.082;13.744;2023-11-21T05:56:27;99859.94;;;10.12;77.70
74403;BME280;62837;51.082;13.744;2023-11-21T05:58:58;99860.94;;;10.12;78.10
74403;BME280;62837;51.082;13.744;2023-11-21T06:01:29;99862.05;;;10.14;78.17
74403;BME280;62837;51.082;13.744;2023-11-21T06:04:00;99861.74;;;10.15;78.08
74403;BME280;62837;51.082;13.744;2023-11-21T06:06:31;99857.80;;;10.16;77.85
74403;BME280;62837;51.082;13.744;2023-11-21T06:09:02;99861.13;;;10.17;77.90
74403;BME280;62837;51.082;13.744;2023-11-21T06:11:35;99869.80;;;10.14;77.16
74403;BME280;62837;51.082;13.744;2023-11-21T06:14:06;99872.95;;;10.08;77.40
74403;BME280;62837;51.082;13.744;2023-11-21T06:16:39;99876.62;;;10.04;77.21
74403;BME280;62837;51.082;13.744;2023-11-21T06:19:10;99875.84;;;10.01;77.85
74403;BME280;62837;51.082;13.744;2023-11-21T06:21:41;99880.11;;;10.02;77.88
74403;BME280;62837;51.082;13.744;2023-11-21T06:24:15;99876.70;;;10.00;77.77
74403;BME280;62837;51.082;13.744;2023-11-21T06:26:46;99883.63;;;9.97;77.54
74403;BME280;62837;51.082;13.744;2023-11-21T06:29:18;99887.02;;;9.94;78.15
74403;BME280;62837;51.082;13.744;2023-11-21T06:31:48;99887.02;;;9.98;78.09
74403;BME280;62837;51.082;13.744;2023-11-21T06:34:20;99884.55;;;9.98;77.91
74403;BME280;62837;51.082;13.744;2023-11-21T06:36:51;99889.52;;;10.02;78.11
74403;BME280;62837;51.082;13.744;2023-11-21T06:39:22;99894.36;;;10.04;77.69
74403;BME280;62837;51.082;13.744;2023-11-21T06:41:53;99896.22;;;10.02;77.34
74403;BME280;62837;51.082;13.744;2023-11-21T06:44:24;99900.00;;;10.01;78.22
74403;BME280;62837;51.082;13.744;2023-11-21T06:46:54;99900.73;;;10.05;79.61
74403;BME280;62837;51.082;13.744;2023-11-21T06:49:26;99902.96;;;10.11;80.43
74403;BME280;62837;51.082;13.744;2023-11-21T06:51:56;99904.84;;;10.19;81.71
74403;BME280;62837;51.082;13.744;2023-11-21T06:54:28;99899.06;;;10.30;82.51
74403;BME280;62837;51.082;13.744;2023-11-21T06:56:59;99900.09;;;10.41;83.02
74403;BME280;62837;51.082;13.744;2023-11-21T06:59:31;99897.15;;;10.50;82.60
74403;BME280;62837;51.082;13.744;2023-11-21T07:02:02;99902.04;;;10.49;78.74
74403;BME280;62837;51.082;13.744;2023-11-21T07:04:34;99904.73;;;10.34;77.69
74403;BME280;62837;51.082;13.744;2023-11-21T07:07:06;99906.42;;;10.19;77.13
74403;BME280;62837;51.082;13.744;2023-11-21T07:09:37;99906.27;;;10.02;77.00
74403;BME280;62837;51.082;13.744;2023-11-21T07:12:09;99907.98;;;9.81;77.17
74403;BME280;62837;51.082;13.744;2023-11-21T07:14:40;99909.05;;;9.67;77.41
74403;BME280;62837;51.082;13.744;2023-11-21T07:17:14;99913.81;;;9.58;77.93
74403;BME280;62837;51.082;13.744;2023-11-21T07:19:46;99916.87;;;9.49;77.76
74403;BME280;62837;51.082;13.744;2023-11-21T07:22:18;99920.48;;;9.40;78.04
74403;BME280;62837;51.082;13.744;2023-11-21T07:24:51;99922.18;;;9.33;78.17
74403;BME280;62837;51.082;13.744;2023-11-21T07:27:22;99923.19;;;9.29;78.22
74403;BME280;62837;51.082;13.744;2023-11-21T07:29:53;99925.13;;;9.24;78.62
74403;BME280;62837;51.082;13.744;2023-11-21T07:32:23;99926.70;;;9.21;79.67
74403;BME280;62837;51.082;13.744;2023-11-21T07:34:55;99930.98;;;9.49;83.49
74403;BME280;62837;51.082;13.744;2023-11-21T07:37:26;99935.78;;;9.60;80.04
74403;BME280;62837;51.082;13.744;2023-11-21T07:39:58;99933.02;;;9.57;79.33
74403;BME280;62837;51.082;13.744;2023-11-21T07:42:29;99934.55;;;9.50;78.88
74403;BME280;62837;51.082;13.744;2023-11-21T07:45:02;99938.05;;;9.41;79.06
74403;BME280;62837;51.082;13.744;2023-11-21T07:47:33;99939.92;;;9.34;79.01
74403;BME280;62837;51.082;13.744;2023-11-21T07:50:07;99950.06;;;9.28;79.01
74403;BME280;62837;51.082;13.744;2023-11-21T07:52:38;99951.58;;;9.24;79.28
74403;BME280;62837;51.082;13.744;2023-11-21T07:55:09;99951.11;;;9.22;79.43
74403;BME280;62837;51.082;13.744;2023-11-21T07:57:41;99954.01;;;9.20;79.36
74403;BME280;62837;51.082;13.744;2023-11-21T08:00:13;99959.25;;;9.18;79.41
74403;BME280;62837;51.082;13.744;2023-11-21T08:02:44;99959.75;;;9.13;79.51
74403;BME280;62837;51.082;13.744;2023-11-21T08:05:17;99963.06;;;9.08;79.51
74403;BME280;62837;51.082;13.744;2023-11-21T08:08:01;99963.50;;;9.02;79.56
74403;BME280;62837;51.082;13.744;2023-11-21T08:10:32;99962.27;;;9.00;79.64
74403;BME280;62837;51.082;13.744;2023-11-21T08:13:03;99965.88;;;8.94;80.18
74403;BME280;62837;51.082;13.744;2023-11-21T08:15:34;99961.32;;;8.89;80.16
74403;BME280;62837;51.082;13.744;2023-11-21T08:18:06;99965.48;;;8.83;80.22
74403;BME280;62837;51.082;13.744;2023-11-21T08:20:38;99967.83;;;8.80;80.55
74403;BME280;62837;51.082;13.744;2023-11-21T08:23:09;99970.41;;;8.77;80.97
74403;BME280;62837;51.082;13.744;2023-11-21T08:25:40;99972.67;;;8.72;81.09
74403;BME280;62837;51.082;13.744;2023-11-21T08:28:12;99974.48;;;8.69;81.67
74403;BME280;62837;51.082;13.744;2023-11-21T08:30:43;99973.54;;;8.67;81.98
74403;BME280;62837;51.082;13.744;2023-11-21T08:33:14;99975.31;;;8.64;82.48
74403;BME280;62837;51.082;13.744;2023-11-21T08:35:45;99977.15;;;8.63;82.76
74403;BME280;62837;51.082;13.744;2023-11-21T08:38:16;99973.25;;;8.62;82.93
74403;BME280;62837;51.082;13.744;2023-11-21T08:40:48;99974.63;;;8.63;83.24
74403;BME280;62837;51.082;13.744;2023-11-21T08:43:19;99979.38;;;8.62;83.11
74403;BME280;62837;51.082;13.744;2023-11-21T08:45:50;99981.36;;;8.61;83.28
74403;BME280;62837;51.082;13.744;2023-11-21T08:48:21;99984.08;;;8.59;83.54
74403;BME280;62837;51.082;13.744;2023-11-21T08:50:52;99982.95;;;8.58;83.69
74403;BME280;62837;51.082;13.744;2023-11-21T08:53:23;99980.91;;;8.55;84.05
74403;BME280;62837;51.082;13.744;2023-11-21T08:55:55;99978.57;;;8.52;83.98
74403;BME280;62837;51.082;13.744;2023-11-21T08:58:26;99981.40;;;8.51;84.47
74403;BME280;62837;51.082;13.744;2023-11-21T09:00:57;99983.68;;;8.49;84.43
74403;BME280;62837;51.082;13.744;2023-11-21T09:03:28;99984.85;;;8.51;84.86
74403;BME280;62837;51.082;13.744;2023-11-21T09:05:59;99983.51;;;8.54;84.58
74403;BME280;62837;51.082;13.744;2023-11-21T09:08:30;99985.75;;;8.53;84.62
74403;BME280;62837;51.082;13.744;2023-11-21T09:11:01;99990.67;;;8.52;84.68
74403;BME280;62837;51.082;13.744;2023-11-21T09:13:33;99998.15;;;8.53;85.11
74403;BME280;62837;51.082;13.744;2023-11-21T09:16:05;100002.66;;;8.55;84.96
74403;BME280;62837;51.082;13.744;2023-11-21T09:18:36;100003.66;;;8.56;84.76
74403;BME280;62837;51.082;13.744;2023-11-21T09:21:07;100003.89;;;8.56;85.03
74403;BME280;62837;51.082;13.744;2023-11-21T09:23:38;100005.65;;;8.58;84.88
74403;BME280;62837;51.082;13.744;2023-11-21T09:26:09;100011.52;;;8.57;85.23
74403;BME280;62837;51.082;13.744;2023-11-21T09:28:40;100014.23;;;8.60;84.95
74403;BME280;62837;51.082;13.744;2023-11-21T09:31:14;100016.40;;;8.62;85.03
74403;BME280;62837;51.082;13.744;2023-11-21T09:33:46;100016.71;;;8.65;85.05
74403;BME280;62837;51.082;13.744;2023-11-21T09:36:17;100017.85;;;8.64;84.68
74403;BME280;62837;51.082;13.744;2023-11-21T09:38:48;100024.91;;;8.64;84.90
74403;BME280;62837;51.082;13.744;2023-11-21T09:41:23;100026.17;;;8.64;84.28
74403;BME280;62837;51.082;13.744;2023-11-21T09:44:01;100035.21;;;8.63;83.78
74403;BME280;62837;51.082;13.744;2023-11-21T09:46:33;100037.88;;;8.62;83.57
74403;BME280;62837;51.082;13.744;2023-11-21T09:49:10;100040.86;;;8.63;83.42
74403;BME280;62837;51.082;13.744;2023-11-21T09:51:44;100045.93;;;8.62;83.07
74403;BME280;62837;51.082;13.744;2023-11-21T09:54:16;100047.14;;;8.53;82.31
74403;BME280;62837;51.082;13.744;2023-11-21T09:56:49;100044.52;;;8.37;82.41
74403;BME280;62837;51.082;13.744;2023-11-21T09:59:20;100054.83;;;8.32;82.34
74403;BME280;62837;51.082;13.744;2023-11-21T10:01:51;100059.24;;;8.20;82.03
74403;BME280;62837;51.082;13.744;2023-11-21T10:04:22;100063.60;;;8.08;82.10
74403;BME280;62837;51.082;13.744;2023-11-21T10:06:53;100068.72;;;8.02;82.52
74403;BME280;62837;51.082;13.744;2023-11-21T10:09:26;100068.27;;;8.01;82.79
74403;BME280;62837;51.082;13.744;2023-11-21T10:11:58;100071.73;;;7.95;82.02
74403;BME280;62837;51.082;13.744;2023-11-21T10:14:32;100075.49;;;7.88;81.72
74403;BME280;62837;51.082;13.744;2023-11-21T10:17:05;100077.73;;;7.80;81.61
74403;BME280;62837;51.082;13.744;2023-11-21T10:19:38;100079.77;;;7.72;81.64
74403;BME280;62837;51.082;13.744;2023-11-21T10:22:09;100081.50;;;7.63;81.25
74403;BME280;62837;51.082;13.744;2023-11-21T10:24:41;100086.16;;;7.55;81.08
74403;BME280;62837;51.082;13.744;2023-11-21T10:27:22;100089.34;;;7.52;81.39
74403;BME280;62837;51.082;13.744;2023-11-21T10:29:54;100093.52;;;7.48;81.48
74403;BME280;62837;51.082;13.744;2023-11-21T10:32:29;100099.04;;;7.46;81.35
74403;BME280;62837;51.082;13.744;2023-11-21T10:35:02;100106.75;;;7.46;81.18
74403;BME280;62837;51.082;13.744;2023-11-21T10:37:36;100114.23;;;7.46;81.02
74403;BME280;62837;51.082;13.744;2023-11-21T10:40:10;100120.80;;;7.46;81.32
74403;BME280;62837;51.082;13.744;2023-11-21T10:42:42;100121.60;;;7.51;81.39
74403;BME280;62837;51.082;13.744;2023-11-21T10:45:13;100121.81;;;7.57;81.26
74403;BME280;62837;51.082;13.744;2023-11-21T10:47:45;100126.55;;;7.61;81.05
74403;BME280;62837;51.082;13.744;2023-11-21T10:50:19;100125.27;;;7.60;80.39
74403;BME280;62837;51.082;13.744;2023-11-21T10:52:50;100127.46;;;7.58;79.70
74403;BME280;62837;51.082;13.744;2023-11-21T10:55:21;100130.36;;;7.57;79.74
74403;BME280;62837;51.082;13.744;2023-11-21T10:57:55;100136.06;;;7.61;79.80
74403;BME280;62837;51.082;13.744;2023-11-21T11:00:29;100135.52;;;7.64;79.17
74403;BME280;62837;51.082;13.744;2023-11-21T11:03:00;100130.95;;;7.66;79.23
74403;BME280;62837;51.082;13.744;2023-11-21T11:05:32;100138.45;;;7.68;79.08
74403;BME280;62837;51.082;13.744;2023-11-21T11:08:06;100140.30;;;7.71;78.94
74403;BME280;62837;51.082;13.744;2023-11-21T11:10:39;100140.40;;;7.74;79.36
74403;BME280;62837;51.082;13.744;2023-11-21T11:13:10;100143.31;;;7.77;79.17
74403;BME280;62837;51.082;13.744;2023-11-21T11:15:44;100147.34;;;7.79;78.76
74403;BME280;62837;51.082;13.744;2023-11-21T11:18:18;100149.10;;;7.76;78.06
74403;BME280;62837;51.082;13.744;2023-11-21T11:20:51;100153.90;;;7.72;77.83
74403;BME280;62837;51.082;13.744;2023-11-21T11:23:36;100154.27;;;7.62;77.14
74403;BME280;62837;51.082;13.744;2023-11-21T11:26:24;100154.10;;;7.48;77.19
74403;BME280;62837;51.082;13.744;2023-11-21T11:29:08;100159.60;;;7.41;77.36
74403;BME280;62837;51.082;13.744;2023-11-21T11:31:50;100164.95;;;7.40;77.60
74403;BME280;62837;51.082;13.744;2023-11-21T11:34:28;100163.77;;;7.36;77.65
74403;BME280;62837;51.082;13.744;2023-11-21T11:37:04;100168.70;;;7.36;77.94
74403;BME280;62837;51.082;13.744;2023-11-21T11:39:39;100171.83;;;7.37;78.04
74403;BME280;62837;51.082;13.744;2023-11-21T11:42:14;100176.53;;;7.40;78.20
74403;BME280;62837;51.082;13.744;2023-11-21T11:44:54;100174.06;;;7.41;78.38
74403;BME280;62837;51.082;13.744;2023-11-21T11:47:29;100179.30;;;7.42;77.83
74403;BME280;62837;51.082;13.744;2023-11-21T11:50:05;100174.38;;;7.36;77.55
74403;BME280;62837;51.082;13.744;2023-11-21T11:52:44;100177.31;;;7.32;77.59
74403;BME280;62837;51.082;13.744;2023-11-21T11:55:16;100178.69;;;7.32;77.85
74403;BME280;62837;51.082;13.744;2023-11-21T11:57:47;100180.73;;;7.33;77.85
74403;BME280;62837;51.082;13.744;2023-11-21T12:00:33;100178.21;;;7.33;77.89
74403;BME280;62837;51.082;13.744;2023-11-21T12:03:10;100182.54;;;7.34;77.89
74403;BME280;62837;51.082;13.744;2023-11-21T12:05:41;100183.61;;;7.35;77.96
74403;BME280;62837;51.082;13.744;2023-11-21T12:08:17;100184.45;;;7.36;77.86
74403;BME280;62837;51.082;13.744;2023-11-21T12:10:48;100189.05;;;7.34;77.64
74403;BME280;62837;51.082;13.744;2023-11-21T12:13:19;100190.00;;;7.29;77.56
74403;BME280;62837;51.082;13.744;2023-11-21T12:15:50;100191.37;;;7.26;77.62
74403;BME280;62837;51.082;13.744;2023-11-21T12:18:22;100200.90;;;7.25;77.56
74403;BME280;62837;51.082;13.744;2023-11-21T12:20:55;100207.54;;;7.23;77.48
74403;BME280;62837;51.082;13.744;2023-11-21T12:23:27;100213.42;;;7.22;77.10
74403;BME280;62837;51.082;13.744;2023-11-21T12:25:59;100210.98;;;7.20;77.06
74403;BME280;62837;51.082;13.744;2023-11-21T12:28:30;100215.52;;;7.18;76.97
74403;BME280;62837;51.082;13.744;2023-11-21T12:31:02;100221.50;;;7.16;76.89
74403;BME280;62837;51.082;13.744;2023-11-21T12:33:47;100226.46;;;7.15;77.13
74403;BME280;62837;51.082;13.744;2023-11-21T12:36:18;100227.73;;;7.16;77.20
74403;BME280;62837;51.082;13.744;2023-11-21T12:38:49;100222.21;;;7.16;77.37
74403;BME280;62837;51.082;13.744;2023-11-21T12:41:20;100225.95;;;7.18;77.54
74403;BME280;62837;51.082;13.744;2023-11-21T12:43:51;100225.17;;;7.19;77.83
74403;BME280;62837;51.082;13.744;2023-11-21T12:46:23;100226.05;;;7.19;78.04
74403;BME280;62837;51.082;13.744;2023-11-21T12:48:55;100231.36;;;7.19;77.98
74403;BME280;62837;51.082;13.744;2023-11-21T12:51:27;100231.30;;;7.16;77.89
74403;BME280;62837;51.082;13.744;2023-11-21T12:53:59;100234.56;;;7.11;77.58
74403;BME280;62837;51.082;13.744;2023-11-21T12:56:30;100243.46;;;7.00;77.49
74403;BME280;62837;51.082;13.744;2023-11-21T12:59:02;100245.07;;;6.91;77.06
74403;BME280;62837;51.082;13.744;2023-11-21T13:01:35;100254.42;;;6.85;77.12
74403;BME280;62837;51.082;13.744;2023-11-21T13:04:08;100262.67;;;6.80;77.29
74403;BME280;62837;51.082;13.744;2023-11-21T13:06:41;100269.30;;;6.72;77.23
74403;BME280;62837;51.082;13.744;2023-11-21T13:09:12;100268.42;;;6.62;77.23
74403;BME280;62837;51.082;13.744;2023-11-21T13:11:50;100271.23;;;6.52;78.02
74403;BME280;62837;51.082;13.744;2023-11-21T13:14:30;100273.16;;;6.49;78.35
74403;BME280;62837;51.082;13.744;2023-11-21T13:17:01;100280.30;;;6.50;78.53
74403;BME280;62837;51.082;13.744;2023-11-21T13:19:33;100278.55;;;6.54;78.86